Barrington Woods, Indiana
Current Conditions -  °F | °C
As of 2:03 PM on Thursday 27 Nov 2014 (Local Time) from KFWA Reporting Station
Light Snow Light Snow  
Wind Chill: 19°   Ceiling: 1500
Heat Index: 31°   Visibility: 3mi
Dew Point: 26°   Wind: 17mph
Humidity: 82%   Direction: 270°W
Pressure: 30.24"   Gusts: NA
Location:  40.8317°N, 84.9398°W
Report Text: KFWA 271903Z 27015KT 3SM -SN BKN015 OVC023 M01/M03 A3024 RMK AO2 P0000 T10061033
Loading
Personal Weather Stations






























Interactive Weather Map New forecast layout! Learn more

10-Day Weather Forecast

Advertisements
Track Severe Weather on mobile